Time;durP1;ratioP1;P1;durP2;ratioP2;P2;SDS_P1;SDS_P2;PMS_P1;PMS_P2;Temp;Humidity;BMP_temperature;BMP_pressure;BME280_temperature;BME280_humidity;BME280_pressure;Samples;Min_cycle;Max_cycle;Signal;HPM_P1;HPM_P2
2022/06/24 00:00:39;;;;;;;5.80;2.00;;;;;;;20.41;72.07;96203.69;10367597;28;20456;-20
2022/06/24 00:05:40;;;;;;;6.95;1.90;;;;;;;20.38;72.48;96210.50;10367661;28;20065;-20
2022/06/24 00:10:40;;;;;;;5.57;2.20;;;;;;;20.37;72.10;96198.66;10368717;28;20468;-20
2022/06/24 00:15:41;;;;;;;5.10;2.13;;;;;;;20.36;72.19;96204.63;10367175;28;20052;-20
2022/06/24 00:20:43;;;;;;;6.45;2.72;;;;;;;20.37;72.21;96208.84;10367522;28;20036;-22
2022/06/24 00:25:46;;;;;;;7.00;1.70;;;;;;;20.34;72.58;96201.28;10426441;28;20056;-20
2022/06/24 00:30:54;;;;;;;7.95;2.22;;;;;;;20.37;72.03;96204.59;10376785;28;20036;-20
2022/06/24 00:35:56;;;;;;;7.28;1.90;;;;;;;20.36;71.93;96197.81;10367947;28;20041;-21
2022/06/24 00:41:09;;;;;;;5.00;1.50;;;;;;;20.35;72.12;96192.78;10367664;28;20415;-20
2022/06/24 00:46:35;;;;;;;7.50;1.88;;;;;;;20.34;71.97;96186.03;10366685;28;20044;-20
2022/06/24 00:51:37;;;;;;;8.85;1.83;;;;;;;20.32;71.88;96190.25;10373286;28;20037;-20
2022/06/24 00:56:38;;;;;;;5.97;2.15;;;;;;;20.31;71.75;96188.59;10372311;28;20048;-20
2022/06/24 01:01:40;;;;;;;10.82;2.67;;;;;;;20.31;71.64;96181.81;10373033;28;20669;-20
2022/06/24 01:06:44;;;;;;;5.88;1.73;;;;;;;20.30;71.79;96186.91;10371570;28;20503;-20
2022/06/24 01:11:44;;;;;;;5.03;2.05;;;;;;;20.34;71.34;96198.72;10371680;28;20037;-20
2022/06/24 01:16:45;;;;;;;4.93;1.93;;;;;;;20.31;71.16;96202.16;10371577;28;20386;-21
2022/06/24 01:21:47;;;;;;;5.93;2.25;;;;;;;20.32;71.02;96200.44;10371850;28;20026;-18
2022/06/24 01:26:54;;;;;;;5.80;2.15;;;;;;;20.35;70.92;96198.69;10439857;28;20030;-21
2022/06/24 01:31:54;;;;;;;8.82;2.72;;;;;;;20.40;70.58;96191.84;10370853;28;20104;-20
2022/06/24 01:36:55;;;;;;;7.40;2.10;;;;;;;20.43;70.09;96191.78;10370227;28;20562;-20
2022/06/24 01:41:55;;;;;;;7.03;1.93;;;;;;;20.39;70.52;96190.16;10370635;28;20296;-20
2022/06/24 01:46:56;;;;;;;8.73;2.00;;;;;;;20.44;70.06;96201.09;10370732;28;20288;-19
2022/06/24 01:52:00;;;;;;;10.38;2.13;;;;;;;20.42;70.18;96196.91;10378615;28;20084;-22
2022/06/24 01:57:01;;;;;;;10.35;2.40;;;;;;;20.38;70.34;96189.31;10370368;28;20034;-19
2022/06/24 02:02:01;;;;;;;6.60;2.53;;;;;;;20.42;70.50;96189.28;10370135;28;20029;-20
2022/06/24 02:07:02;;;;;;;5.65;2.10;;;;;;;20.40;70.24;96190.13;10368759;28;20480;-20
2022/06/24 02:17:21;;;;;;;13.30;2.47;;;;;;;20.44;70.02;96168.88;10369830;28;20068;-20
2022/06/24 02:22:22;;;;;;;7.47;2.17;;;;;;;20.48;69.14;96167.13;10373752;28;20087;-21
2022/06/24 02:27:22;;;;;;;6.67;2.00;;;;;;;20.42;69.17;96157.91;10433676;28;20837;-20
2022/06/24 02:32:23;;;;;;;4.70;2.13;;;;;;;20.45;69.16;96155.28;10368997;28;20034;-21
2022/06/24 02:37:23;;;;;;;7.20;1.83;;;;;;;20.41;69.20;96147.75;10368031;28;20297;-20
2022/06/24 02:42:23;;;;;;;6.37;2.20;;;;;;;20.45;69.17;96165.47;10368380;28;20033;-20
2022/06/24 02:47:24;;;;;;;4.43;1.70;;;;;;;20.45;69.09;96169.72;10368842;28;20288;-20
2022/06/24 02:52:24;;;;;;;6.80;1.87;;;;;;;20.45;68.92;96175.63;10385200;28;20295;-21
2022/06/24 02:57:24;;;;;;;5.90;1.90;;;;;;;20.43;69.38;96157.03;10400294;28;20042;-20
2022/06/24 03:02:25;;;;;;;7.07;1.77;;;;;;;20.39;69.39;96150.31;10367502;28;20037;-20
2022/06/24 03:07:25;;;;;;;7.45;2.35;;;;;;;20.39;69.27;96149.47;10368488;28;20042;-21
2022/06/24 03:12:26;;;;;;;8.93;2.43;;;;;;;20.43;68.99;96151.94;10366960;28;20029;-20
2022/06/24 03:17:26;;;;;;;5.20;1.90;;;;;;;20.41;68.84;96147.75;10367658;28;20531;-20
2022/06/24 03:22:27;;;;;;;7.97;1.50;;;;;;;20.42;68.71;96155.34;10373283;28;20045;-20
2022/06/24 03:27:27;;;;;;;6.95;2.15;;;;;;;20.42;68.65;96151.13;10431233;28;20044;-20
2022/06/24 03:32:27;;;;;;;3.17;1.90;;;;;;;20.39;68.82;96150.31;10367054;28;20495;-20
2022/06/24 03:37:28;;;;;;;8.17;2.40;;;;;;;20.34;68.68;96151.25;10366916;28;20458;-21
2022/06/24 03:42:29;;;;;;;9.55;2.63;;;;;;;20.31;68.90;96143.69;10375293;28;20296;-21
2022/06/24 03:47:29;;;;;;;8.30;2.50;;;;;;;20.31;68.68;96153.00;10419315;28;20069;-20
2022/06/24 03:52:29;;;;;;;4.20;1.80;;;;;;;19.65;70.71;96143.81;10409667;28;20033;-22
2022/06/24 03:57:30;;;;;;;12.30;2.20;;;;;;;19.44;72.08;96141.56;10426591;28;20291;-20
2022/06/24 04:02:30;;;;;;;7.80;1.67;;;;;;;19.38;72.73;96136.56;10425272;28;20030;-20
2022/06/24 04:07:30;;;;;;;7.83;2.53;;;;;;;19.35;72.90;96122.19;10423270;28;20034;-21
2022/06/24 04:12:31;;;;;;;3.23;2.00;;;;;;;19.33;73.19;96118.03;10366308;28;20032;-21
2022/06/24 04:17:31;;;;;;;3.37;2.00;;;;;;;19.33;73.16;96121.38;10366649;28;20103;-20
2022/06/24 04:22:32;;;;;;;6.33;1.70;;;;;;;19.27;73.31;96107.94;10373447;28;20104;-21
2022/06/24 04:27:32;;;;;;;8.43;2.10;;;;;;;19.24;73.41;96118.16;10430323;28;20029;-21
2022/06/24 04:32:32;;;;;;;6.38;2.15;;;;;;;19.25;73.42;96114.75;10373226;28;20038;-21
2022/06/24 04:37:37;;;;;;;12.32;2.45;;;;;;;19.22;73.74;96117.31;10374138;28;20076;-21
2022/06/24 04:42:38;;;;;;;4.60;2.35;;;;;;;19.22;73.75;96099.53;10373360;28;20037;-22
2022/06/24 04:47:38;;;;;;;8.73;2.17;;;;;;;19.13;74.32;96089.47;10414076;28;20041;-21
2022/06/24 04:52:40;;;;;;;4.80;2.53;;;;;;;19.24;74.58;96097.84;10404785;28;20552;-22
2022/06/24 04:57:40;;;;;;;11.35;2.47;;;;;;;19.31;74.63;96097.72;10383875;28;20486;-20
2022/06/24 05:02:41;;;;;;;9.48;3.30;;;;;;;19.97;71.70;96094.22;10371806;28;20036;-20
2022/06/24 05:07:42;;;;;;;10.50;3.05;;;;;;;20.40;70.19;96096.03;10371946;28;20037;-20
2022/06/24 05:12:42;;;;;;;18.98;4.63;;;;;;;20.59;69.10;96094.03;10370137;28;20033;-20
2022/06/24 05:17:42;;;;;;;17.33;4.27;;;;;;;20.70;68.52;96095.50;10372052;28;20084;-21
2022/06/24 05:22:43;;;;;;;16.83;3.00;;;;;;;20.77;68.10;96086.91;10381778;28;20508;-21
2022/06/24 05:27:43;;;;;;;7.37;2.40;;;;;;;20.80;70.28;96079.19;10430735;28;20034;-20
2022/06/24 05:32:43;;;;;;;14.97;3.23;;;;;;;20.83;68.29;96091.88;10369029;28;20042;-21
2022/06/24 05:37:44;;;;;;;10.90;3.13;;;;;;;20.81;67.67;96073.22;10371247;28;20301;-21
2022/06/24 05:42:44;;;;;;;9.15;3.58;;;;;;;20.89;67.36;96068.88;10370344;28;20381;-20
2022/06/24 05:47:45;;;;;;;11.37;3.33;;;;;;;20.96;67.92;96077.25;10371486;28;20562;-20
2022/06/24 05:58:04;;;;;;;4.43;1.95;;;;;;;21.22;66.50;96073.28;10397355;28;20300;-21
2022/06/24 06:03:04;;;;;;;3.88;2.22;;;;;;;21.10;65.96;96073.53;10370660;28;20092;-21
2022/06/24 06:08:05;;;;;;;9.10;2.58;;;;;;;21.10;66.40;96085.41;10370185;28;20064;-24
2022/06/24 06:13:05;;;;;;;7.82;2.50;;;;;;;21.05;66.31;96072.78;10369410;28;20030;-20
2022/06/24 06:18:06;;;;;;;7.60;2.37;;;;;;;21.05;66.31;96072.78;10369542;28;20034;-20
2022/06/24 06:23:06;;;;;;;5.18;2.00;;;;;;;21.05;66.38;96067.69;10385552;28;20029;-21
2022/06/24 06:28:07;;;;;;;6.03;1.77;;;;;;;21.05;66.30;96067.69;10422420;28;20046;-20
2022/06/24 06:33:07;;;;;;;7.07;1.87;;;;;;;21.04;66.21;96063.47;10368456;28;20296;-21
2022/06/24 06:38:07;;;;;;;2.50;1.53;;;;;;;21.07;66.10;96060.03;10368268;28;20420;-20
2022/06/24 06:43:09;;;;;;;4.47;1.60;;;;;;;21.25;66.04;96050.31;10367830;28;20436;-22
2022/06/24 06:48:09;;;;;;;4.15;1.55;;;;;;;21.38;65.85;96040.69;10368829;28;20026;-20
2022/06/24 06:53:10;;;;;;;6.35;2.08;;;;;;;21.25;65.33;96035.03;10390801;28;20064;-20
2022/06/24 06:58:10;;;;;;;2.93;1.73;;;;;;;21.14;65.50;96026.78;10393997;28;20049;-22
2022/06/24 07:03:10;;;;;;;3.93;1.43;;;;;;;21.17;66.02;96041.16;10369245;28;20038;-20
2022/06/24 07:08:12;;;;;;;3.78;1.67;;;;;;;21.15;65.87;96038.63;10367990;28;20041;-21
2022/06/24 07:13:13;;;;;;;5.90;2.30;;;;;;;21.14;65.74;96031.03;10364459;28;20049;-20
2022/06/24 07:18:13;;;;;;;3.00;1.23;;;;;;;21.14;65.47;96031.88;10368042;28;20111;-20
2022/06/24 07:23:14;;;;;;;2.42;1.40;;;;;;;21.14;65.58;96034.41;10385278;28;20064;-20
2022/06/24 07:28:14;;;;;;;2.50;1.58;;;;;;;21.08;65.53;96016.75;10417626;28;20103;-20
2022/06/24 07:33:14;;;;;;;3.10;1.57;;;;;;;21.25;66.21;96029.94;10367231;28;20494;-20
2022/06/24 07:38:15;;;;;;;2.27;1.30;;;;;;;21.42;65.14;96017.69;10366959;28;20038;-20
2022/06/24 07:43:16;;;;;;;1.25;0.90;;;;;;;21.41;64.70;96013.44;10366583;28;20018;-20
2022/06/24 07:48:16;;;;;;;2.30;1.40;;;;;;;21.24;65.24;96007.06;10367309;28;20602;-20
2022/06/24 07:53:16;;;;;;;2.60;1.60;;;;;;;21.24;65.13;96002.78;10366591;28;20037;-22
2022/06/24 07:58:17;;;;;;;2.43;1.20;;;;;;;21.20;65.31;95996.09;10366564;28;20120;-20
2022/06/24 08:03:17;;;;;;;3.30;1.50;;;;;;;21.20;65.17;95998.66;10370044;28;20026;-20
2022/06/24 08:08:17;;;;;;;2.93;1.43;;;;;;;21.20;65.68;96003.75;10375234;28;20066;-19
2022/06/24 08:13:18;;;;;;;3.07;1.77;;;;;;;21.21;65.26;96002.88;10373951;28;20801;-20
2022/06/24 08:18:19;;;;;;;2.40;1.47;;;;;;;21.20;65.17;96006.28;10374472;28;20504;-20
2022/06/24 08:23:19;;;;;;;4.20;1.45;;;;;;;21.21;65.36;96000.31;10394122;28;20407;-20
2022/06/24 08:28:20;;;;;;;3.20;1.10;;;;;;;21.43;65.20;95991.34;10423240;28;20042;-20
2022/06/24 08:33:20;;;;;;;1.37;1.07;;;;;;;21.52;64.66;95978.38;10373816;28;20026;-22
2022/06/24 08:38:20;;;;;;;1.87;1.27;;;;;;;21.38;65.04;95982.13;10373797;28;20041;-20
2022/06/24 08:43:22;;;;;;;3.90;1.10;;;;;;;21.31;64.82;95978.88;10372914;28;20376;-20
2022/06/24 08:48:22;;;;;;;2.85;1.17;;;;;;;21.27;64.71;95976.44;10373706;28;20379;-21
2022/06/24 08:53:25;;;;;;;2.38;1.30;;;;;;;21.25;64.75;95970.53;10397745;28;20414;-20
2022/06/24 08:58:26;;;;;;;2.15;1.30;;;;;;;21.25;64.93;95966.31;10396748;28;20033;-20
2022/06/24 09:03:26;;;;;;;3.13;1.47;;;;;;;21.26;64.80;95970.53;10372418;28;20041;-20
2022/06/24 09:08:33;;;;;;;2.53;1.20;;;;;;;21.18;64.54;95967.31;10372730;28;20079;-20
2022/06/24 09:13:47;;;;;;;2.50;1.25;;;;;;;21.23;64.70;95980.75;10371533;28;20026;-21
2022/06/24 09:18:56;;;;;;;1.00;0.90;;;;;;;21.41;64.96;95994.78;10372219;28;20585;-22
2022/06/24 09:23:59;;;;;;;1.33;1.00;;;;;;;21.56;64.30;95984.25;10401536;28;20075;-21
2022/06/24 09:29:03;;;;;;;1.63;0.93;;;;;;;21.49;64.19;95982.72;10410015;28;20092;-20
2022/06/24 09:34:09;;;;;;;1.13;0.90;;;;;;;21.40;64.45;95991.38;10371374;28;20113;-20
2022/06/24 09:39:12;;;;;;;3.30;1.23;;;;;;;21.33;64.44;95992.44;10371474;28;20042;-20
2022/06/24 09:44:13;;;;;;;2.95;1.20;;;;;;;21.29;64.51;95995.91;10370448;28;20523;-20
2022/06/24 09:49:15;;;;;;;1.25;1.00;;;;;;;21.30;64.42;96002.66;10371718;28;20113;-20
2022/06/24 09:54:16;;;;;;;1.65;1.15;;;;;;;21.29;64.41;96003.53;10403338;28;20087;-20
2022/06/24 10:04:35;;;;;;;3.50;1.10;;;;;;;21.28;64.39;96009.50;10369812;28;20065;-20
2022/06/24 10:09:36;;;;;;;1.10;0.90;;;;;;;21.33;65.08;96011.94;10370215;28;20068;-20
2022/06/24 10:14:37;;;;;;;0.80;0.80;;;;;;;21.54;64.29;96012.28;10369408;28;20056;-21
2022/06/24 10:19:38;;;;;;;1.58;0.70;;;;;;;21.57;63.70;96003.75;10370644;28;20057;-20
2022/06/24 10:24:40;;;;;;;1.52;0.90;;;;;;;21.44;64.11;96008.28;10410363;28;20166;-21
2022/06/24 10:29:41;;;;;;;1.40;0.90;;;;;;;21.40;64.01;96001.56;10396349;28;20065;-21
2022/06/24 10:34:42;;;;;;;2.07;0.90;;;;;;;21.38;64.31;96003.31;10368868;28;20033;-20
2022/06/24 10:39:58;;;;;;;1.20;1.00;;;;;;;21.37;64.34;95999.09;10369861;28;20042;-20
2022/06/24 10:45:06;;;;;;;1.13;0.85;;;;;;;21.36;64.38;95997.44;10368279;28;20034;-20
2022/06/24 10:50:13;;;;;;;5.80;1.10;;;;;;;21.38;64.28;96008.41;10368115;28;20041;-20
2022/06/24 10:55:29;;;;;;;2.47;0.82;;;;;;;21.39;64.39;96012.63;10367322;28;20044;-20
2022/06/24 11:00:42;;;;;;;4.93;2.00;;;;;;;21.36;63.78;96017.81;10368127;28;20038;-20
2022/06/24 11:05:45;;;;;;;3.45;0.80;;;;;;;21.55;63.35;96016.50;10367734;28;20062;-21
2022/06/24 11:10:49;;;;;;;3.85;0.95;;;;;;;21.64;63.10;96026.47;10367543;28;20041;-20
2022/06/24 11:15:54;;;;;;;1.92;0.82;;;;;;;21.52;63.52;96042.06;10400665;28;20037;-20
2022/06/24 11:21:04;;;;;;;4.85;1.20;;;;;;;21.47;63.63;96041.31;10394909;28;20124;-20
2022/06/24 11:26:08;;;;;;;3.95;0.80;;;;;;;21.42;63.58;96043.16;10432517;28;20491;-20
2022/06/24 11:31:30;;;;;;;1.65;0.80;;;;;;;21.40;63.71;96055.06;10370729;28;20117;-21
2022/06/24 11:36:31;;;;;;;4.75;0.93;;;;;;;21.35;63.86;96056.88;10366462;28;20042;-21
2022/06/24 11:41:37;;;;;;;7.80;1.10;;;;;;;21.33;63.96;96058.63;10368036;28;20040;-20
2022/06/24 11:46:38;;;;;;;5.50;1.80;;;;;;;21.34;63.80;96060.31;10366727;28;20033;-20
2022/06/24 11:51:39;;;;;;;2.80;1.00;;;;;;;21.32;63.62;96067.13;10371483;28;20029;-20
2022/06/24 11:56:42;;;;;;;1.65;0.90;;;;;;;21.47;63.16;96079.53;10366321;28;20674;-20
2022/06/24 12:01:43;;;;;;;2.15;0.77;;;;;;;21.64;62.78;96087.63;10367307;28;20513;-22
2022/06/24 12:06:44;;;;;;;1.55;0.70;;;;;;;21.56;63.00;96092.06;10366119;28;20084;-20
2022/06/24 12:11:46;;;;;;;1.55;0.80;;;;;;;21.46;63.33;96094.84;10366858;28;20030;-19
2022/06/24 12:16:58;;;;;;;2.10;0.93;;;;;;;21.41;63.64;96081.38;10366066;28;20108;-20
2022/06/24 12:22:18;;;;;;;3.30;2.35;;;;;;;21.36;63.56;96073.84;10366174;28;20049;-20
2022/06/24 12:27:18;;;;;;;2.55;0.80;;;;;;;21.34;63.79;96055.22;10366035;28;20037;-20
2022/06/24 12:32:19;;;;;;;2.20;0.73;;;;;;;21.30;63.57;96048.50;10364782;28;20110;-20
2022/06/24 12:37:20;;;;;;;1.35;0.60;;;;;;;21.24;63.65;96028.25;10365644;28;20046;-20
2022/06/24 12:42:24;;;;;;;2.53;0.70;;;;;;;21.29;63.68;96031.53;10364099;28;20117;-20
2022/06/24 12:52:46;;;;;;;3.60;0.80;;;;;;;21.59;63.13;96032.56;10393944;28;20033;-22
2022/06/24 12:57:47;;;;;;;0.90;0.70;;;;;;;21.58;63.02;96043.63;10402683;28;20049;-20
2022/06/24 13:02:55;;;;;;;3.43;0.90;;;;;;;21.46;63.26;96054.09;10372311;28;20041;-20
2022/06/24 13:07:55;;;;;;;1.02;0.60;;;;;;;21.40;63.34;96060.16;10372856;28;20084;-21
2022/06/24 13:12:56;;;;;;;2.15;0.57;;;;;;;21.34;63.47;96052.66;10372723;28;20515;-21
2022/06/24 13:17:56;;;;;;;2.53;0.90;;;;;;;21.32;63.64;96048.47;10371768;28;20481;-21
2022/06/24 13:22:56;;;;;;;1.30;0.60;;;;;;;21.32;63.57;96056.94;10384939;28;20362;-20
2022/06/24 13:27:57;;;;;;;1.00;0.80;;;;;;;21.32;63.60;96056.94;10391862;28;20038;-20
2022/06/24 13:32:58;;;;;;;0.75;0.50;;;;;;;21.32;63.63;96079.84;10369502;28;20861;-21
2022/06/24 13:37:58;;;;;;;1.77;1.02;;;;;;;21.35;63.69;96089.13;10370949;28;20042;-20
2022/06/24 13:42:58;;;;;;;2.17;0.80;;;;;;;21.55;63.46;96102.28;10369563;28;20535;-21
2022/06/24 13:48:02;;;;;;;0.80;0.63;;;;;;;21.63;62.80;96119.06;10370721;28;20034;-21
2022/06/24 13:53:03;;;;;;;1.38;0.75;;;;;;;21.54;62.94;96129.47;10393058;28;20061;-21
2022/06/24 13:58:03;;;;;;;2.90;0.60;;;;;;;21.45;63.38;96128.81;10395983;28;20115;-20
2022/06/24 14:03:04;;;;;;;1.45;0.90;;;;;;;21.36;63.40;96129.84;10367499;28;20338;-20
2022/06/24 14:08:04;;;;;;;2.63;0.77;;;;;;;21.44;62.85;96143.28;10369592;28;20083;-20
2022/06/24 14:13:05;;;;;;;1.42;0.55;;;;;;;21.49;62.06;96154.19;10369668;28;20412;-21
2022/06/24 14:18:07;;;;;;;1.77;0.80;;;;;;;21.41;62.66;96160.31;10370031;28;20480;-22
2022/06/24 14:28:27;;;;;;;2.15;1.00;;;;;;;21.41;62.53;96176.41;10417527;28;20412;-20
2022/06/24 14:33:28;;;;;;;2.55;0.98;;;;;;;21.51;60.70;96175.38;10368827;28;20041;-20
2022/06/24 14:43:47;;;;;;;3.40;1.38;;;;;;;21.58;61.12;96182.03;10368295;28;20433;-19
2022/06/24 14:48:47;;;;;;;2.80;1.00;;;;;;;21.48;61.88;96180.53;10367195;28;20045;-20
2022/06/24 14:53:47;;;;;;;1.00;0.73;;;;;;;21.47;61.52;96183.94;10369692;28;20496;-21
2022/06/24 14:58:48;;;;;;;4.00;0.60;;;;;;;21.48;63.41;96182.25;10368635;28;20034;-20
2022/06/24 15:03:48;;;;;;;9.40;0.80;;;;;;;21.27;63.59;96191.16;10367288;28;20060;-20
2022/06/24 15:08:48;;;;;;;4.77;0.73;;;;;;;21.29;63.81;96194.50;10368317;28;20037;-21
2022/06/24 15:13:50;;;;;;;12.68;1.77;;;;;;;21.21;64.56;96196.34;10367364;28;20041;-20
2022/06/24 15:18:50;;;;;;;4.28;0.90;;;;;;;21.48;66.13;96195.81;10368264;28;20088;-20
2022/06/24 15:23:51;;;;;;;4.73;0.93;;;;;;;21.68;66.42;96203.94;10419842;28;20086;-20
2022/06/24 15:28:51;;;;;;;2.13;0.70;;;;;;;21.48;67.17;96205.19;10406718;28;20300;-20
2022/06/24 15:33:51;;;;;;;3.13;0.80;;;;;;;21.43;67.31;96212.91;10366789;28;20281;-20
2022/06/24 15:38:52;;;;;;;1.57;0.70;;;;;;;21.48;67.47;96221.28;10367151;28;20038;-21
2022/06/24 15:43:57;;;;;;;4.33;1.10;;;;;;;21.24;66.65;96215.81;10372993;28;20288;-21
2022/06/24 15:48:58;;;;;;;8.88;1.38;;;;;;;21.26;66.10;96220.03;10409517;28;20033;-20
2022/06/24 15:53:58;;;;;;;3.75;1.00;;;;;;;21.25;67.51;96218.34;10413709;28;20029;-20
2022/06/24 15:58:59;;;;;;;3.30;1.20;;;;;;;21.35;67.96;96224.94;10419592;28;20037;-20
2022/06/24 16:04:00;;;;;;;4.38;0.90;;;;;;;21.37;68.36;96228.28;10423882;28;20025;-20
2022/06/24 16:09:00;;;;;;;3.88;0.93;;;;;;;21.42;68.12;96231.59;10421181;28;20091;-20
2022/06/24 16:14:01;;;;;;;3.40;1.20;;;;;;;21.37;67.73;96235.09;10409585;28;20038;-20
2022/06/24 16:19:01;;;;;;;1.63;0.80;;;;;;;21.29;67.83;96239.50;10404531;28;20037;-20
2022/06/24 16:24:02;;;;;;;3.70;1.03;;;;;;;21.22;67.11;96238.75;10428510;28;20171;-20
2022/06/24 16:29:02;;;;;;;5.35;1.02;;;;;;;21.13;66.20;96243.19;10393625;28;20033;-20
2022/06/24 16:34:03;;;;;;;9.13;1.83;;;;;;;21.34;66.76;96241.09;10373640;28;20033;-20
2022/06/24 16:39:04;;;;;;;3.35;1.30;;;;;;;21.56;67.34;96239.81;10374053;28;20042;-20
2022/06/24 16:44:04;;;;;;;1.45;1.20;;;;;;;21.46;65.77;96248.50;10372937;28;20111;-20
2022/06/24 16:49:05;;;;;;;5.50;0.60;;;;;;;21.38;64.94;96249.53;10373772;28;20045;-20
2022/06/24 16:54:05;;;;;;;7.28;0.65;;;;;;;21.32;65.41;96258.09;10373388;28;20025;-20
2022/06/24 16:59:07;;;;;;;1.73;0.63;;;;;;;21.11;66.48;96266.13;10373696;28;20121;-20
2022/06/24 17:04:07;;;;;;;2.85;0.70;;;;;;;20.99;66.07;96270.59;10402963;28;20504;-20
2022/06/24 17:09:08;;;;;;;4.80;0.73;;;;;;;21.14;65.59;96278.78;10376694;28;20053;-20
2022/06/24 17:14:08;;;;;;;6.20;1.10;;;;;;;21.38;66.71;96280.91;10372576;28;20288;-20
2022/06/24 17:19:08;;;;;;;0.97;0.60;;;;;;;21.45;64.13;96282.47;10372843;28;20117;-20
2022/06/24 17:24:09;;;;;;;1.10;0.90;;;;;;;21.35;64.52;96293.72;10405996;28;20079;-20
2022/06/24 17:29:11;;;;;;;1.55;0.70;;;;;;;21.28;64.13;96289.59;10408723;28;20040;-22
2022/06/24 17:34:12;;;;;;;2.85;0.77;;;;;;;21.23;64.17;96276.09;10370823;28;20034;-23
2022/06/24 17:39:13;;;;;;;4.10;0.65;;;;;;;21.25;64.31;96273.53;10371831;28;20045;-20
2022/06/24 17:44:13;;;;;;;3.47;0.80;;;;;;;21.24;64.02;96267.56;10370977;28;20493;-19
2022/06/24 17:49:13;;;;;;;3.53;0.90;;;;;;;21.26;64.65;96263.31;10372063;28;20395;-20
2022/06/24 17:54:14;;;;;;;4.17;1.00;;;;;;;21.53;65.44;96270.44;10403628;28;20381;-21
2022/06/24 17:59:14;;;;;;;5.40;0.90;;;;;;;21.53;64.42;96270.44;10388464;28;20075;-21
2022/06/24 18:04:15;;;;;;;2.75;0.63;;;;;;;21.40;64.52;96268.97;10422075;28;20033;-20
2022/06/24 18:09:16;;;;;;;2.17;0.43;;;;;;;21.28;64.38;96261.56;10415621;28;20032;-19
2022/06/24 18:14:17;;;;;;;1.38;0.80;;;;;;;21.32;63.80;96273.38;10410269;28;20305;-19
2022/06/24 18:19:17;;;;;;;1.10;0.60;;;;;;;21.23;63.96;96265.91;10404916;28;20049;-22
2022/06/24 18:24:17;;;;;;;2.93;1.50;;;;;;;21.28;63.88;96268.34;10427709;28;20490;-20
2022/06/24 18:29:18;;;;;;;1.97;0.80;;;;;;;21.25;63.95;96276.06;10405763;28;20040;-20
2022/06/24 18:34:18;;;;;;;1.50;0.90;;;;;;;21.48;65.20;96271.41;10371651;28;20030;-20
2022/06/24 18:39:19;;;;;;;2.47;0.77;;;;;;;21.54;65.10;96282.31;10372404;28;20048;-20
2022/06/24 18:44:19;;;;;;;3.35;1.25;;;;;;;21.47;64.21;96285.81;10370486;28;20112;-20
2022/06/24 18:49:19;;;;;;;2.57;0.70;;;;;;;21.37;64.08;96284.31;10368908;28;20042;-19
2022/06/24 18:54:20;;;;;;;3.23;0.73;;;;;;;21.38;63.77;96280.91;10403867;28;20037;-21
2022/06/24 18:59:20;;;;;;;2.57;0.60;;;;;;;21.37;64.15;96289.41;10385956;28;20042;-20
2022/06/24 19:04:21;;;;;;;3.43;0.70;;;;;;;21.34;63.92;96291.19;10369702;28;20029;-20
2022/06/24 19:09:21;;;;;;;1.63;0.70;;;;;;;21.40;64.05;96284.25;10370035;28;20296;-21
2022/06/24 19:14:21;;;;;;;1.10;0.70;;;;;;;21.41;63.93;96291.03;10368865;28;20037;-20
2022/06/24 19:19:22;;;;;;;4.63;1.00;;;;;;;21.58;63.67;96294.13;10372037;28;20037;-21
2022/06/24 19:24:22;;;;;;;1.75;0.80;;;;;;;21.60;63.78;96302.56;10450746;28;20039;-21
2022/06/24 19:29:22;;;;;;;3.23;0.80;;;;;;;21.46;63.32;96319.00;10397409;28;20228;-20
2022/06/24 19:34:23;;;;;;;1.60;1.00;;;;;;;21.34;63.54;96327.69;10367527;28;20033;-22
2022/06/24 19:39:23;;;;;;;2.53;0.73;;;;;;;21.30;63.47;96338.78;10368275;28;20383;-21
2022/06/24 19:44:24;;;;;;;1.65;0.70;;;;;;;21.27;63.61;96354.13;10369366;28;20030;-20
2022/06/24 19:49:25;;;;;;;0.50;0.37;;;;;;;21.25;63.65;96355.84;10369210;28;20042;-20
2022/06/24 19:54:25;;;;;;;1.02;0.63;;;;;;;21.42;63.84;96364.03;10369004;28;20328;-20
2022/06/24 19:59:26;;;;;;;4.32;0.70;;;;;;;21.56;63.56;96369.72;10374876;28;20508;-20
2022/06/24 20:09:45;;;;;;;1.08;0.55;;;;;;;21.34;63.70;96391.34;10421746;28;20033;-21
2022/06/24 20:14:45;;;;;;;2.67;0.67;;;;;;;21.29;63.55;96390.56;10388514;28;20087;-20
2022/06/24 20:19:46;;;;;;;1.40;0.60;;;;;;;21.25;63.83;96398.28;10374889;28;20389;-20
2022/06/24 20:24:46;;;;;;;0.85;0.50;;;;;;;21.25;63.76;96396.59;10418225;28;20326;-20
2022/06/24 20:29:48;;;;;;;0.53;0.53;;;;;;;21.23;63.67;96393.19;10400641;28;20049;-20
2022/06/24 20:34:48;;;;;;;3.85;0.70;;;;;;;21.33;63.72;96383.72;10373654;28;20347;-21
2022/06/24 20:39:49;;;;;;;1.85;0.60;;;;;;;21.50;63.04;96392.78;10374262;28;20510;-19
2022/06/24 20:44:49;;;;;;;0.52;0.52;;;;;;;21.50;63.04;96392.78;10373507;28;20507;-22
2022/06/24 20:49:50;;;;;;;0.63;0.40;;;;;;;21.40;63.10;96400.59;10374363;28;20730;-22
2022/06/24 20:54:51;;;;;;;0.60;0.60;;;;;;;21.30;63.21;96402.44;10379502;28;20129;-19
2022/06/24 20:59:51;;;;;;;1.20;0.70;;;;;;;21.21;63.54;96399.22;10376098;28;20073;-20
2022/06/24 21:04:51;;;;;;;5.13;0.70;;;;;;;21.10;63.42;96371.38;10413267;28;20125;-20
2022/06/24 21:09:52;;;;;;;0.85;0.77;;;;;;;21.22;63.41;96401.72;10409188;28;20421;-20
2022/06/24 21:14:52;;;;;;;2.00;1.27;;;;;;;21.03;62.87;96415.59;10404908;28;20030;-20
2022/06/24 21:19:53;;;;;;;2.00;0.75;;;;;;;21.31;62.96;96406.66;10408289;28;20305;-21
2022/06/24 21:24:53;;;;;;;1.17;0.67;;;;;;;21.35;62.73;96408.31;10415472;28;20030;-20
2022/06/24 21:29:54;;;;;;;4.20;0.53;;;;;;;21.32;62.55;96410.88;10414675;28;20291;-20
2022/06/24 21:34:54;;;;;;;3.60;0.77;;;;;;;20.14;63.82;96422.69;10422972;28;20492;-20
2022/06/24 21:39:57;;;;;;;1.77;0.33;;;;;;;19.33;66.64;96397.22;10428760;28;20496;-21
2022/06/24 21:44:58;;;;;;;1.45;0.50;;;;;;;19.17;67.21;96426.91;10400047;28;20036;-20
2022/06/24 21:49:59;;;;;;;0.50;0.40;;;;;;;19.22;66.30;96435.38;10430054;28;20420;-21
2022/06/24 21:55:00;;;;;;;1.65;0.63;;;;;;;19.16;66.30;96434.56;10443130;28;20033;-21
2022/06/24 22:00:01;;;;;;;1.20;0.50;;;;;;;19.21;65.84;96433.69;10393945;28;20496;-21
2022/06/24 22:05:02;;;;;;;1.33;0.52;;;;;;;19.22;65.63;96429.44;10370303;28;20030;-20
2022/06/24 22:10:05;;;;;;;1.23;0.55;;;;;;;19.10;66.13;96430.34;10385069;28;20415;-22
2022/06/24 22:15:07;;;;;;;1.52;0.52;;;;;;;19.16;65.81;96429.50;10369863;28;20061;-23
2022/06/24 22:20:09;;;;;;;1.20;0.65;;;;;;;19.07;66.01;96426.97;10369716;28;20068;-21
2022/06/24 22:25:09;;;;;;;0.70;0.60;;;;;;;19.09;65.66;96418.50;10419492;28;20025;-21
2022/06/24 22:30:10;;;;;;;1.48;0.75;;;;;;;19.08;65.72;96421.09;10390056;28;20037;-21
2022/06/24 22:35:11;;;;;;;0.80;0.50;;;;;;;19.16;65.44;96419.34;10369114;28;20032;-21
2022/06/24 22:40:12;;;;;;;1.87;0.90;;;;;;;19.13;64.90;96424.41;10369342;28;20138;-21
2022/06/24 22:45:12;;;;;;;2.00;0.60;;;;;;;19.12;65.06;96430.34;10368336;28;20794;-21
2022/06/24 22:50:13;;;;;;;0.82;0.55;;;;;;;19.05;64.83;96423.63;10368425;28;20038;-20
2022/06/24 22:55:13;;;;;;;2.88;0.57;;;;;;;18.99;65.23;96431.28;10408915;28;20029;-21
2022/06/24 23:00:14;;;;;;;0.40;0.40;;;;;;;18.91;65.52;96438.94;10377983;28;20057;-21
2022/06/24 23:05:14;;;;;;;2.13;0.80;;;;;;;18.88;65.30;96438.09;10367983;28;20056;-21
2022/06/24 23:10:17;;;;;;;1.43;0.77;;;;;;;18.82;65.71;96438.16;10368672;28;20038;-21
2022/06/24 23:15:17;;;;;;;2.30;0.60;;;;;;;18.84;65.53;96442.34;10367820;28;20030;-21
2022/06/24 23:20:19;;;;;;;1.48;0.60;;;;;;;18.64;66.23;96449.25;10368205;28;20064;-22
2022/06/24 23:25:19;;;;;;;2.47;0.70;;;;;;;18.62;66.22;96452.63;10420606;28;20037;-21
2022/06/24 23:30:19;;;;;;;1.43;0.60;;;;;;;18.46;66.24;96438.34;10384102;28;20034;-21
2022/06/24 23:35:20;;;;;;;4.43;0.70;;;;;;;18.51;66.31;96456.91;10366344;28;20033;-24
2022/06/24 23:40:20;;;;;;;4.53;2.20;;;;;;;18.67;65.49;96453.47;10367802;28;20113;-21
2022/06/24 23:45:21;;;;;;;4.07;0.70;;;;;;;18.48;65.98;96457.75;10366676;28;20640;-21
2022/06/24 23:55:41;;;;;;;1.08;0.30;;;;;;;18.58;65.01;96468.72;10407333;28;20045;-21
